createdAt,value
2017-04-30T00:00:25.806Z,0
2017-04-30T00:01:34.528Z,0
2017-04-30T00:02:44.709Z,0
2017-04-30T00:03:53.786Z,0
2017-04-30T00:05:02.867Z,0
2017-04-30T00:06:11.927Z,0
2017-04-30T00:07:20.697Z,0
2017-04-30T00:08:29.933Z,0
2017-04-30T00:09:39.550Z,0
2017-04-30T00:10:48.306Z,0
2017-04-30T00:11:57.081Z,0
2017-04-30T00:13:06.776Z,0
2017-04-30T00:14:15.847Z,0
2017-04-30T00:15:25.539Z,0
2017-04-30T00:16:34.551Z,0
2017-04-30T00:17:43.616Z,0
2017-04-30T00:18:52.997Z,0
2017-04-30T00:20:02.314Z,0
2017-04-30T00:21:11.061Z,0
2017-04-30T00:22:20.445Z,0
2017-04-30T00:23:29.763Z,0
2017-04-30T00:24:39.078Z,0
2017-04-30T00:25:47.828Z,0
2017-04-30T00:26:56.895Z,0
2017-04-30T00:28:06.578Z,0
2017-04-30T00:29:15.652Z,0
2017-04-30T00:30:25.027Z,0
2017-04-30T00:31:34.105Z,0
2017-04-30T00:32:43.178Z,0
2017-04-30T00:33:52.246Z,0
2017-04-30T00:35:02.226Z,0
2017-04-30T00:36:10.993Z,0
2017-04-30T00:37:20.353Z,0
2017-04-30T00:38:29.413Z,0
2017-04-30T00:39:38.788Z,0
2017-04-30T00:40:48.476Z,0
2017-04-30T00:41:57.550Z,0
2017-04-30T00:43:06.938Z,0
2017-04-30T00:44:16.317Z,0
2017-04-30T00:45:25.393Z,0
2017-04-30T00:46:34.408Z,0
2017-04-30T00:47:44.079Z,0
2017-04-30T00:48:53.107Z,0
2017-04-30T00:50:02.172Z,0
2017-04-30T00:51:11.238Z,0
2017-04-30T00:52:20.006Z,0
2017-04-30T00:53:29.637Z,0
2017-04-30T00:54:38.691Z,0
2017-04-30T00:55:47.459Z,0
2017-04-30T00:56:56.838Z,0
2017-04-30T00:58:05.935Z,0
2017-04-30T00:59:15.017Z,0
2017-04-30T01:00:24.048Z,0
2017-04-30T01:01:32.856Z,0
2017-04-30T01:02:42.558Z,0
2017-04-30T01:03:51.723Z,0
2017-04-30T01:05:01.346Z,0
2017-04-30T01:06:10.698Z,0
2017-04-30T01:07:19.476Z,0
2017-04-30T01:08:29.159Z,0
2017-04-30T01:09:38.233Z,0
2017-04-30T01:10:47.473Z,0
2017-04-30T01:11:56.250Z,0
2017-04-30T01:13:06.245Z,0
2017-04-30T01:14:15.878Z,0
2017-04-30T01:15:24.633Z,0
2017-04-30T01:16:33.699Z,0
2017-04-30T01:17:43.076Z,0
2017-04-30T01:18:52.651Z,0
2017-04-30T01:20:02.278Z,0
2017-04-30T01:21:11.638Z,0
2017-04-30T01:22:20.709Z,0
2017-04-30T01:23:30.380Z,0
2017-04-30T01:24:39.754Z,0
2017-04-30T01:25:49.121Z,0
2017-04-30T01:26:57.888Z,0
2017-04-30T01:28:06.959Z,0
2017-04-30T01:29:16.655Z,0
2017-04-30T01:30:25.420Z,0
2017-04-30T01:31:34.796Z,0
2017-04-30T01:32:44.779Z,0
2017-04-30T01:33:53.852Z,0
2017-04-30T01:35:04.141Z,0
2017-04-30T01:36:13.205Z,0
2017-04-30T01:37:22.888Z,0
2017-04-30T01:38:32.264Z,0
2017-04-30T01:39:41.638Z,0
2017-04-30T01:40:50.709Z,0
2017-04-30T01:42:00.072Z,0
2017-04-30T01:43:09.134Z,0
2017-04-30T01:44:18.221Z,0
2017-04-30T01:45:27.286Z,0
2017-04-30T01:46:36.049Z,0
2017-04-30T01:47:45.834Z,0
2017-04-30T01:48:55.818Z,0
2017-04-30T01:50:05.497Z,0
2017-04-30T01:51:14.565Z,0
2017-04-30T01:52:23.362Z,0
2017-04-30T01:53:32.454Z,0
2017-04-30T01:54:41.780Z,0
2017-04-30T01:55:50.535Z,0
2017-04-30T01:56:59.909Z,0
2017-04-30T01:58:08.625Z,0
2017-04-30T01:59:17.630Z,0
2017-04-30T02:00:26.984Z,0
2017-04-30T02:01:36.014Z,0
2017-04-30T02:02:44.768Z,0
2017-04-30T02:03:54.762Z,0
2017-04-30T02:05:04.141Z,0
2017-04-30T02:06:13.525Z,0
2017-04-30T02:07:22.904Z,0
2017-04-30T02:08:32.589Z,0
2017-04-30T02:09:42.274Z,0
2017-04-30T02:10:51.342Z,0
2017-04-30T02:12:00.720Z,0
2017-04-30T02:13:09.789Z,0
2017-04-30T02:14:19.675Z,0
2017-04-30T02:15:28.754Z,0
2017-04-30T02:16:38.120Z,0
2017-04-30T02:17:47.199Z,0
2017-04-30T02:18:55.962Z,0
2017-04-30T02:20:05.030Z,0
2017-04-30T02:21:13.793Z,0
2017-04-30T02:22:22.568Z,0
2017-04-30T02:23:31.343Z,0
2017-04-30T02:24:40.128Z,0
2017-04-30T02:25:49.241Z,0
2017-04-30T02:26:58.269Z,0
2017-04-30T02:28:07.342Z,0
2017-04-30T02:29:16.768Z,0
2017-04-30T02:30:25.856Z,0
2017-04-30T02:31:34.947Z,0
2017-04-30T02:32:43.675Z,0
2017-04-30T02:33:52.432Z,0
2017-04-30T02:35:01.184Z,0
2017-04-30T02:36:09.966Z,0
2017-04-30T02:37:19.033Z,0
2017-04-30T02:38:28.107Z,0
2017-04-30T02:39:37.498Z,0
2017-04-30T02:40:46.528Z,0
2017-04-30T02:41:55.590Z,0
2017-04-30T02:43:04.985Z,0
2017-04-30T02:44:14.640Z,0
2017-04-30T02:45:24.024Z,0
2017-04-30T02:46:32.744Z,0
2017-04-30T02:47:41.855Z,0
2017-04-30T02:48:52.170Z,0
2017-04-30T02:50:01.255Z,0
2017-04-30T02:51:10.284Z,0
2017-04-30T02:52:19.352Z,0
2017-04-30T02:53:28.444Z,0
2017-04-30T02:54:38.100Z,0
2017-04-30T02:55:46.813Z,0
2017-04-30T02:56:55.521Z,0
2017-04-30T02:58:04.595Z,0
2017-04-30T02:59:14.002Z,0
2017-04-30T03:00:23.048Z,0
2017-04-30T03:01:32.420Z,0
2017-04-30T03:02:41.464Z,0
2017-04-30T03:03:50.574Z,0
2017-04-30T03:05:00.266Z,0
2017-04-30T03:06:09.352Z,0
2017-04-30T03:07:19.038Z,0
2017-04-30T03:08:28.422Z,0
2017-04-30T03:09:37.503Z,0
2017-04-30T03:10:46.535Z,0
2017-04-30T03:11:55.607Z,0
2017-04-30T03:13:05.300Z,0
2017-04-30T03:14:14.336Z,0
2017-04-30T03:15:23.674Z,0
2017-04-30T03:16:32.434Z,0
2017-04-30T03:17:41.522Z,0
2017-04-30T03:18:50.499Z,0
2017-04-30T03:20:00.205Z,0
2017-04-30T03:21:08.986Z,0
2017-04-30T03:22:17.760Z,0
2017-04-30T03:23:26.796Z,0
2017-04-30T03:24:35.876Z,0
2017-04-30T03:25:44.598Z,0
2017-04-30T03:26:53.368Z,0
2017-04-30T03:28:02.143Z,0
2017-04-30T03:29:11.179Z,0
2017-04-30T03:30:19.944Z,0
2017-04-30T03:31:29.030Z,0
2017-04-30T03:32:38.116Z,0
2017-04-30T03:33:47.200Z,0
2017-04-30T03:34:56.592Z,0
2017-04-30T03:36:05.684Z,0
2017-04-30T03:37:14.775Z,0
2017-04-30T03:38:24.156Z,0
2017-04-30T03:39:33.551Z,0
2017-04-30T03:40:42.277Z,4
2017-04-30T03:41:51.351Z,4
2017-04-30T03:43:00.736Z,0
2017-04-30T03:44:10.134Z,0
2017-04-30T03:45:19.265Z,4
2017-04-30T03:46:28.046Z,0
2017-04-30T03:47:37.434Z,4
2017-04-30T03:48:46.819Z,4
2017-04-30T03:49:57.156Z,4
2017-04-30T03:51:06.246Z,8
2017-04-30T03:52:15.012Z,4
2017-04-30T03:53:23.747Z,8
2017-04-30T03:54:33.130Z,8
2017-04-30T03:55:42.525Z,8
2017-04-30T03:56:51.315Z,8
2017-04-30T03:58:00.398Z,16
2017-04-30T03:59:10.086Z,16
2017-04-30T04:00:19.165Z,16
2017-04-30T04:01:28.193Z,20
2017-04-30T04:02:37.260Z,20
2017-04-30T04:03:46.876Z,24
2017-04-30T04:04:55.657Z,28
2017-04-30T04:06:04.738Z,28
2017-04-30T04:07:13.515Z,32
2017-04-30T04:08:22.854Z,36
2017-04-30T04:09:31.868Z,36
2017-04-30T04:10:40.580Z,40
2017-04-30T04:11:49.653Z,44
2017-04-30T04:12:59.044Z,48
2017-04-30T04:14:08.143Z,52
2017-04-30T04:15:17.229Z,56
2017-04-30T04:16:26.008Z,60
2017-04-30T04:17:35.083Z,64
2017-04-30T04:18:44.470Z,68
2017-04-30T04:19:54.308Z,76
2017-04-30T04:21:03.698Z,80
2017-04-30T04:22:12.777Z,84
2017-04-30T04:23:21.853Z,88
2017-04-30T04:24:31.242Z,92
2017-04-30T04:25:40.335Z,96
2017-04-30T04:26:49.416Z,104
2017-04-30T04:27:58.148Z,108
2017-04-30T04:29:07.521Z,112
2017-04-30T04:30:16.587Z,116
2017-04-30T04:31:25.995Z,120
2017-04-30T04:32:35.077Z,128
2017-04-30T04:33:43.851Z,136
2017-04-30T04:34:52.942Z,140
2017-04-30T04:36:02.642Z,144
2017-04-30T04:37:11.725Z,152
2017-04-30T04:38:20.809Z,160
2017-04-30T04:39:30.201Z,160
2017-04-30T04:40:38.979Z,168
2017-04-30T04:41:47.755Z,172
2017-04-30T04:42:56.537Z,176
2017-04-30T04:44:05.923Z,184
2017-04-30T04:45:15.312Z,192
2017-04-30T04:46:24.392Z,200
2017-04-30T04:47:33.174Z,204
2017-04-30T04:48:42.512Z,212
2017-04-30T04:49:51.825Z,216
2017-04-30T04:51:00.908Z,224
2017-04-30T04:52:09.993Z,232
2017-04-30T04:53:19.651Z,240
2017-04-30T04:54:29.029Z,244
2017-04-30T04:55:38.119Z,252
2017-04-30T04:56:46.891Z,256
2017-04-30T04:57:56.591Z,264
2017-04-30T04:59:05.368Z,272
2017-04-30T05:00:14.138Z,276
2017-04-30T05:01:23.537Z,288
2017-04-30T05:02:32.267Z,296
2017-04-30T05:03:41.641Z,300
2017-04-30T05:04:50.717Z,308
2017-04-30T05:05:59.746Z,316
2017-04-30T05:07:08.822Z,324
2017-04-30T05:08:18.207Z,332
2017-04-30T05:09:27.598Z,336
2017-04-30T05:10:36.684Z,348
2017-04-30T05:11:46.081Z,352
2017-04-30T05:12:55.785Z,360
2017-04-30T05:14:05.789Z,372
2017-04-30T05:15:15.180Z,376
2017-04-30T05:16:23.956Z,388
2017-04-30T05:17:33.040Z,396
2017-04-30T05:18:42.128Z,400
2017-04-30T05:19:51.526Z,412
2017-04-30T05:21:00.306Z,420
2017-04-30T05:22:09.080Z,428
2017-04-30T05:23:18.478Z,440
2017-04-30T05:24:27.511Z,448
2017-04-30T05:25:36.269Z,460
2017-04-30T05:26:45.050Z,472
2017-04-30T05:27:54.846Z,480
2017-04-30T05:29:04.191Z,496
2017-04-30T05:30:13.257Z,504
2017-04-30T05:31:22.040Z,516
2017-04-30T05:32:30.815Z,528
2017-04-30T05:33:40.151Z,544
2017-04-30T05:34:49.218Z,560
2017-04-30T05:35:58.299Z,568
2017-04-30T05:37:07.332Z,588
2017-04-30T05:38:16.711Z,600
2017-04-30T05:39:25.801Z,612
2017-04-30T05:40:34.893Z,632
2017-04-30T05:41:43.667Z,644
2017-04-30T05:42:52.723Z,660
2017-04-30T05:44:01.492Z,672
2017-04-30T05:45:10.581Z,684
2017-04-30T05:46:19.365Z,700
2017-04-30T05:47:29.052Z,716
2017-04-30T05:48:38.142Z,728
2017-04-30T05:49:47.181Z,744
2017-04-30T05:50:55.945Z,760
2017-04-30T05:52:04.985Z,776
2017-04-30T05:53:13.693Z,788
2017-04-30T05:54:22.765Z,808
2017-04-30T05:55:31.793Z,820
2017-04-30T05:56:40.567Z,832
2017-04-30T05:57:49.304Z,844
2017-04-30T05:58:59.621Z,860
2017-04-30T06:00:08.402Z,872
2017-04-30T06:01:17.196Z,884
2017-04-30T06:02:26.303Z,900
2017-04-30T06:03:35.376Z,916
2017-04-30T06:04:44.453Z,932
2017-04-30T06:05:53.476Z,944
2017-04-30T06:07:02.185Z,960
2017-04-30T06:08:11.258Z,972
2017-04-30T06:09:20.295Z,984
2017-04-30T06:10:29.676Z,992
2017-04-30T06:11:38.458Z,1012
2017-04-30T06:12:47.557Z,1020
2017-04-30T06:13:56.641Z,1032
2017-04-30T06:15:05.416Z,1048
2017-04-30T06:16:14.192Z,1056
2017-04-30T06:17:23.574Z,1068
2017-04-30T06:18:32.599Z,1076
2017-04-30T06:19:41.373Z,1084
2017-04-30T06:20:50.246Z,1096
2017-04-30T06:21:59.286Z,1052
2017-04-30T06:23:08.350Z,1124
2017-04-30T06:24:17.118Z,1136
2017-04-30T06:25:26.814Z,1144
2017-04-30T06:26:36.207Z,1156
2017-04-30T06:27:45.296Z,1164
2017-04-30T06:28:54.737Z,1172
2017-04-30T06:30:03.827Z,1184
2017-04-30T06:31:12.943Z,1196
2017-04-30T06:32:21.719Z,1204
2017-04-30T06:33:30.812Z,1212
2017-04-30T06:34:40.561Z,1224
2017-04-30T06:35:49.648Z,1232
2017-04-30T06:36:59.075Z,1248
2017-04-30T06:38:08.732Z,1260
2017-04-30T06:39:19.031Z,1272
2017-04-30T06:40:28.106Z,1280
2017-04-30T06:41:37.192Z,1288
2017-04-30T06:42:46.273Z,1300
2017-04-30T06:43:55.656Z,1308
2017-04-30T06:45:04.428Z,1324
2017-04-30T06:46:13.819Z,1332
2017-04-30T06:47:22.594Z,1348
2017-04-30T06:48:31.386Z,1364
2017-04-30T06:49:40.161Z,1372
2017-04-30T06:50:49.551Z,1384
2017-04-30T06:51:58.672Z,1396
2017-04-30T06:53:07.455Z,1408
2017-04-30T06:54:16.852Z,1416
2017-04-30T06:55:26.566Z,1428
2017-04-30T06:56:35.659Z,1440
2017-04-30T06:57:45.359Z,1452
2017-04-30T06:58:54.153Z,1472
2017-04-30T07:00:04.148Z,1472
2017-04-30T07:01:13.540Z,1480
2017-04-30T07:02:22.267Z,1472
2017-04-30T07:03:31.032Z,1512
2017-04-30T07:04:40.737Z,1512
2017-04-30T07:05:49.821Z,1508
2017-04-30T07:06:58.595Z,1504
2017-04-30T07:08:07.361Z,1580
2017-04-30T07:09:16.458Z,1588
2017-04-30T07:10:25.846Z,1588
2017-04-30T07:11:34.620Z,1608
2017-04-30T07:12:43.727Z,1624
2017-04-30T07:13:52.974Z,1640
2017-04-30T07:15:02.057Z,1656
2017-04-30T07:16:10.842Z,1664
2017-04-30T07:17:19.634Z,1676
2017-04-30T07:18:28.417Z,1680
2017-04-30T07:19:37.810Z,1676
2017-04-30T07:20:46.886Z,1712
2017-04-30T07:21:55.964Z,1732
2017-04-30T07:23:05.363Z,1744
2017-04-30T07:24:14.713Z,1768
2017-04-30T07:25:23.480Z,1776
2017-04-30T07:26:32.565Z,1784
2017-04-30T07:27:41.955Z,1804
2017-04-30T07:28:51.036Z,1820
2017-04-30T07:30:00.739Z,1832
2017-04-30T07:31:09.514Z,1836
2017-04-30T07:32:18.281Z,1848
2017-04-30T07:33:28.238Z,1816
2017-04-30T07:34:37.619Z,1836
2017-04-30T07:35:47.006Z,1912
2017-04-30T07:36:55.786Z,1928
2017-04-30T07:38:05.172Z,1944
2017-04-30T07:39:14.518Z,1960
2017-04-30T07:40:23.586Z,1976
2017-04-30T07:41:32.376Z,1992
2017-04-30T07:42:41.477Z,2020
2017-04-30T07:43:50.560Z,2032
2017-04-30T07:44:59.349Z,2052
2017-04-30T07:46:08.077Z,2072
2017-04-30T07:47:17.089Z,2096
2017-04-30T07:48:26.717Z,2140
2017-04-30T07:49:36.103Z,2200
2017-04-30T07:50:45.498Z,2264
2017-04-30T07:51:54.583Z,2316
2017-04-30T07:53:03.614Z,2360
2017-04-30T07:54:12.682Z,2388
2017-04-30T07:55:22.079Z,2400
2017-04-30T07:56:30.862Z,2388
2017-04-30T07:57:39.641Z,2388
2017-04-30T07:58:48.981Z,2284
2017-04-30T07:59:58.608Z,2276
2017-04-30T08:01:07.972Z,2260
2017-04-30T08:02:16.765Z,2388
2017-04-30T08:03:26.476Z,2512
2017-04-30T08:04:35.558Z,2532
2017-04-30T08:05:44.338Z,2568
2017-04-30T08:06:53.784Z,2496
2017-04-30T08:08:02.881Z,2412
2017-04-30T08:09:12.222Z,2296
2017-04-30T08:10:21.297Z,2088
2017-04-30T08:11:30.363Z,1756
2017-04-30T08:12:39.758Z,2200
2017-04-30T08:13:49.615Z,2416
2017-04-30T08:14:58.733Z,2504
2017-04-30T08:16:07.515Z,2516
2017-04-30T08:17:16.568Z,2544
2017-04-30T08:18:25.948Z,2540
2017-04-30T08:19:35.340Z,2540
2017-04-30T08:20:44.131Z,2560
2017-04-30T08:21:53.215Z,2556
2017-04-30T08:23:02.250Z,2596
2017-04-30T08:24:11.323Z,2652
2017-04-30T08:25:20.102Z,2684
2017-04-30T08:26:29.488Z,2700
2017-04-30T08:27:38.884Z,2720
2017-04-30T08:28:47.925Z,2756
2017-04-30T08:29:57.303Z,2788
2017-04-30T08:31:06.086Z,2828
2017-04-30T08:32:14.860Z,2828
2017-04-30T08:33:24.248Z,2824
2017-04-30T08:34:33.292Z,2680
2017-04-30T08:35:42.684Z,2588
2017-04-30T08:36:52.072Z,2824
2017-04-30T08:38:01.472Z,2736
2017-04-30T08:39:10.870Z,2788
2017-04-30T08:40:20.265Z,2852
2017-04-30T08:41:29.351Z,2876
2017-04-30T08:42:38.444Z,2876
2017-04-30T08:43:47.522Z,2924
2017-04-30T08:44:56.797Z,2940
2017-04-30T08:46:05.817Z,3004
2017-04-30T08:47:14.554Z,3024
2017-04-30T08:48:23.683Z,3056
2017-04-30T08:49:33.381Z,3072
2017-04-30T08:50:42.775Z,3104
2017-04-30T08:51:51.859Z,3148
2017-04-30T08:53:01.524Z,3168
2017-04-30T08:54:10.611Z,3200
2017-04-30T08:55:19.711Z,3188
2017-04-30T08:56:29.107Z,3232
2017-04-30T08:57:37.886Z,3256
2017-04-30T08:58:46.978Z,3256
2017-04-30T08:59:56.350Z,3228
2017-04-30T09:01:06.070Z,3268
2017-04-30T09:02:15.157Z,3260
2017-04-30T09:03:23.910Z,3304
2017-04-30T09:04:32.635Z,3308
2017-04-30T09:05:42.323Z,3328
2017-04-30T09:06:51.100Z,3324
2017-04-30T09:08:00.810Z,3392
2017-04-30T09:09:09.905Z,3396
2017-04-30T09:10:19.295Z,3472
2017-04-30T09:11:28.027Z,3600
2017-04-30T09:12:36.810Z,3504
2017-04-30T09:13:46.754Z,3528
2017-04-30T09:14:55.838Z,3568
2017-04-30T09:16:04.879Z,3532
2017-04-30T09:17:13.963Z,3584
2017-04-30T09:18:23.065Z,3576
2017-04-30T09:19:32.761Z,3600
2017-04-30T09:20:41.841Z,3624
2017-04-30T09:21:50.925Z,3668
2017-04-30T09:23:00.015Z,3768
2017-04-30T09:24:08.804Z,3696
2017-04-30T09:25:17.903Z,3644
2017-04-30T09:26:27.000Z,3656
2017-04-30T09:27:35.784Z,3604
2017-04-30T09:28:44.562Z,3660
2017-04-30T09:29:53.335Z,3676
2017-04-30T09:31:02.726Z,3684
2017-04-30T09:32:12.074Z,3740
2017-04-30T09:33:21.145Z,3824
2017-04-30T09:34:30.885Z,3796
2017-04-30T09:35:39.927Z,3848
2017-04-30T09:36:49.010Z,3936
2017-04-30T09:37:58.417Z,3952
2017-04-30T09:39:07.803Z,4020
2017-04-30T09:40:16.887Z,4072
2017-04-30T09:41:25.970Z,3988
2017-04-30T09:42:35.678Z,4060
2017-04-30T09:43:45.323Z,4040
2017-04-30T09:44:54.694Z,4012
2017-04-30T09:46:04.081Z,4096
2017-04-30T09:47:13.178Z,4200
2017-04-30T09:48:21.924Z,4264
2017-04-30T09:49:31.034Z,4340
2017-04-30T09:50:39.793Z,4324
2017-04-30T09:51:48.860Z,4452
2017-04-30T09:52:58.045Z,4620
2017-04-30T09:54:07.447Z,4852
2017-04-30T09:55:16.542Z,5112
2017-04-30T09:56:25.643Z,5516
2017-04-30T09:57:35.652Z,5340
2017-04-30T09:58:45.019Z,5776
2017-04-30T09:59:54.721Z,4688
2017-04-30T10:01:03.758Z,5216
2017-04-30T10:02:12.827Z,4512
2017-04-30T10:03:21.926Z,5104
2017-04-30T10:04:31.620Z,5100
2017-04-30T10:05:40.650Z,4916
2017-04-30T10:06:49.757Z,4836
2017-04-30T10:07:58.546Z,5000
2017-04-30T10:09:07.633Z,5192
2017-04-30T10:10:17.036Z,5848
2017-04-30T10:11:25.819Z,6244
2017-04-30T10:12:34.902Z,7516
2017-04-30T10:13:44.302Z,7048
2017-04-30T10:14:53.092Z,8808
2017-04-30T10:16:02.493Z,9884
2017-04-30T10:17:11.584Z,10984
2017-04-30T10:18:20.638Z,11816
2017-04-30T10:19:30.655Z,14104
2017-04-30T10:20:39.745Z,12944
2017-04-30T10:21:48.530Z,16832
2017-04-30T10:22:57.628Z,17600
2017-04-30T10:24:06.718Z,19072
2017-04-30T10:25:15.829Z,21024
2017-04-30T10:26:24.615Z,21792
2017-04-30T10:27:33.648Z,16096
2017-04-30T10:28:42.413Z,21472
2017-04-30T10:29:51.483Z,23872
2017-04-30T10:31:00.576Z,22144
2017-04-30T10:32:09.363Z,25632
2017-04-30T10:33:18.155Z,28160
2017-04-30T10:34:27.859Z,32128
2017-04-30T10:35:37.259Z,33088
2017-04-30T10:36:46.355Z,33824
2017-04-30T10:37:55.979Z,28928
2017-04-30T10:39:05.675Z,35264
2017-04-30T10:40:14.409Z,36512
2017-04-30T10:41:23.187Z,40256
2017-04-30T10:42:32.582Z,41568
2017-04-30T10:43:41.977Z,44064
2017-04-30T10:44:51.064Z,45376
2017-04-30T10:46:00.147Z,46176
2017-04-30T10:47:09.543Z,44384
2017-04-30T10:48:18.625Z,44480
2017-04-30T10:49:28.010Z,45024
2017-04-30T10:50:37.092Z,43008
2017-04-30T10:51:45.867Z,45568
2017-04-30T10:52:54.954Z,50016
2017-04-30T10:54:04.341Z,50208
2017-04-30T10:55:13.063Z,49472
2017-04-30T10:56:21.831Z,51744
2017-04-30T10:57:30.603Z,54624
2017-04-30T10:58:40.008Z,53888
2017-04-30T10:59:49.112Z,54880
2017-04-30T11:00:58.181Z,55136
2017-04-30T11:02:06.961Z,55936
2017-04-30T11:03:15.754Z,56288
2017-04-30T11:04:25.154Z,56256
2017-04-30T11:05:35.450Z,56512
2017-04-30T11:06:44.830Z,55040
2017-04-30T11:07:54.486Z,54432
2017-04-30T11:09:03.870Z,50048
2017-04-30T11:10:12.648Z,47936
2017-04-30T11:11:21.723Z,53952
2017-04-30T11:12:30.448Z,56864
2017-04-30T11:13:39.842Z,55680
2017-04-30T11:14:49.229Z,56928
2017-04-30T11:15:58.632Z,59520
2017-04-30T11:17:08.022Z,55968
2017-04-30T11:18:17.068Z,56192
2017-04-30T11:19:26.482Z,57984
2017-04-30T11:20:35.571Z,57568
2017-04-30T11:21:44.358Z,54560
2017-04-30T11:22:53.595Z,53920
2017-04-30T11:24:03.278Z,51200
2017-04-30T11:25:12.359Z,51328
2017-04-30T11:26:21.446Z,53760
2017-04-30T11:27:30.229Z,53472
2017-04-30T11:28:39.572Z,46912
2017-04-30T11:29:48.351Z,29760
2017-04-30T11:30:57.443Z,29760
2017-04-30T11:32:06.507Z,36256
2017-04-30T11:33:15.279Z,46368
2017-04-30T11:34:24.674Z,45056
2017-04-30T11:35:34.060Z,45216
2017-04-30T11:36:43.169Z,41536
2017-04-30T11:37:52.566Z,41664
2017-04-30T11:39:01.947Z,41056
2017-04-30T11:40:10.693Z,37504
2017-04-30T11:41:19.461Z,36000
2017-04-30T11:42:29.165Z,34368
2017-04-30T11:43:37.946Z,32768
2017-04-30T11:44:47.034Z,29792
2017-04-30T11:45:56.428Z,27776
2017-04-30T11:47:05.519Z,25184
2017-04-30T11:48:14.926Z,26528
2017-04-30T11:49:24.637Z,24864
2017-04-30T11:50:33.450Z,24864
2017-04-30T11:51:42.549Z,20576
2017-04-30T11:52:51.964Z,20704
2017-04-30T11:54:01.662Z,20480
2017-04-30T11:55:10.700Z,19392
2017-04-30T11:56:19.774Z,16864
2017-04-30T11:57:28.893Z,15232
2017-04-30T11:58:37.691Z,12708
2017-04-30T11:59:46.829Z,11496
2017-04-30T12:00:55.614Z,10628
2017-04-30T12:02:04.392Z,9752
2017-04-30T12:03:13.431Z,8100
2017-04-30T12:04:22.218Z,6244
2017-04-30T12:05:31.254Z,3104
2017-04-30T12:06:39.972Z,2856
2017-04-30T12:07:49.376Z,2864
2017-04-30T12:08:59.452Z,2664
2017-04-30T12:10:08.786Z,2672
2017-04-30T12:11:17.501Z,2612
2017-04-30T12:12:26.582Z,2500
2017-04-30T12:13:35.674Z,2512
2017-04-30T12:14:44.464Z,2572
2017-04-30T12:15:53.852Z,2616
2017-04-30T12:17:03.235Z,2664
2017-04-30T12:18:12.323Z,2772
2017-04-30T12:19:21.408Z,2960
2017-04-30T12:20:30.506Z,2844
2017-04-30T12:21:39.293Z,3304
2017-04-30T12:22:48.079Z,3292
2017-04-30T12:23:57.784Z,2992
2017-04-30T12:25:07.129Z,2820
2017-04-30T12:26:16.147Z,3080
2017-04-30T12:27:24.930Z,2988
2017-04-30T12:28:33.738Z,2700
2017-04-30T12:29:42.816Z,2512
2017-04-30T12:30:51.895Z,2412
2017-04-30T12:32:00.623Z,2320
2017-04-30T12:33:09.393Z,2164
2017-04-30T12:34:18.432Z,2024
2017-04-30T12:35:27.765Z,1972
2017-04-30T12:36:37.140Z,1948
2017-04-30T12:37:47.087Z,1932
2017-04-30T12:38:56.475Z,1912
2017-04-30T12:40:05.865Z,1880
2017-04-30T12:41:14.640Z,1872
2017-04-30T12:42:23.435Z,1828
2017-04-30T12:43:32.537Z,1640
2017-04-30T12:44:41.911Z,1532
2017-04-30T12:45:51.302Z,1748
2017-04-30T12:47:00.025Z,1772
2017-04-30T12:48:09.100Z,1760
2017-04-30T12:49:18.186Z,1736
2017-04-30T12:50:27.259Z,1700
2017-04-30T12:51:36.389Z,1740
2017-04-30T12:52:45.781Z,1704
2017-04-30T12:53:54.921Z,1680
2017-04-30T12:55:04.313Z,1736
2017-04-30T12:56:13.392Z,1700
2017-04-30T12:57:22.180Z,1708
2017-04-30T12:58:30.958Z,1704
2017-04-30T12:59:39.993Z,1656
2017-04-30T13:00:49.083Z,1644
2017-04-30T13:01:58.180Z,1640
2017-04-30T13:03:06.962Z,1616
2017-04-30T13:04:15.753Z,1620
2017-04-30T13:05:25.449Z,1592
2017-04-30T13:06:34.227Z,1600
2017-04-30T13:07:43.015Z,1600
2017-04-30T13:08:52.343Z,1468
2017-04-30T13:10:01.451Z,1520
2017-04-30T13:11:10.569Z,1540
2017-04-30T13:12:19.352Z,1464
2017-04-30T13:13:28.393Z,1424
2017-04-30T13:14:37.170Z,1440
2017-04-30T13:15:46.549Z,1428
2017-04-30T13:16:55.330Z,1428
2017-04-30T13:18:04.428Z,1388
2017-04-30T13:19:13.210Z,1428
2017-04-30T13:20:21.986Z,1448
2017-04-30T13:21:31.082Z,1408
2017-04-30T13:22:39.813Z,1376
2017-04-30T13:23:49.494Z,1364
2017-04-30T13:24:59.187Z,1112
2017-04-30T13:26:08.901Z,1248
2017-04-30T13:27:17.996Z,1264
2017-04-30T13:28:27.701Z,1292
2017-04-30T13:29:36.492Z,1292
2017-04-30T13:30:45.899Z,1304
2017-04-30T13:31:54.655Z,1300
2017-04-30T13:33:03.685Z,1292
2017-04-30T13:34:13.102Z,1252
2017-04-30T13:35:21.881Z,1228
2017-04-30T13:36:30.695Z,1236
2017-04-30T13:37:39.778Z,1204
2017-04-30T13:38:49.176Z,1184
2017-04-30T13:39:58.581Z,1196
2017-04-30T13:41:07.963Z,1184
2017-04-30T13:42:16.764Z,1172
2017-04-30T13:43:26.098Z,1156
2017-04-30T13:44:35.159Z,1140
2017-04-30T13:45:44.234Z,1096
2017-04-30T13:46:53.411Z,1108
2017-04-30T13:48:02.178Z,1104
2017-04-30T13:49:10.971Z,1100
2017-04-30T13:50:19.752Z,1116
2017-04-30T13:51:28.529Z,1100
2017-04-30T13:52:38.222Z,1092
2017-04-30T13:53:46.958Z,1076
2017-04-30T13:54:56.590Z,1088
2017-04-30T13:56:06.276Z,1080
2017-04-30T13:57:15.064Z,1092
2017-04-30T13:58:24.083Z,1100
2017-04-30T13:59:33.783Z,1092
2017-04-30T14:00:42.840Z,1080
2017-04-30T14:01:51.613Z,1076
2017-04-30T14:03:00.703Z,1096
2017-04-30T14:04:10.102Z,1096
2017-04-30T14:05:18.888Z,1084
2017-04-30T14:06:27.661Z,1064
2017-04-30T14:07:36.752Z,1076
2017-04-30T14:08:45.839Z,1076
2017-04-30T14:09:55.244Z,1080
2017-04-30T14:11:04.340Z,1076
2017-04-30T14:12:13.770Z,1064
2017-04-30T14:13:22.858Z,1024
2017-04-30T14:14:32.247Z,1004
2017-04-30T14:15:40.972Z,996
2017-04-30T14:16:49.735Z,1016
2017-04-30T14:17:59.136Z,1028
2017-04-30T14:19:08.842Z,1008
2017-04-30T14:20:17.925Z,1020
2017-04-30T14:21:27.002Z,1020
2017-04-30T14:22:36.085Z,1020
2017-04-30T14:23:45.180Z,1024
2017-04-30T14:24:54.270Z,1012
2017-04-30T14:26:03.664Z,1012
2017-04-30T14:27:12.455Z,996
2017-04-30T14:28:22.156Z,976
2017-04-30T14:29:31.574Z,980
2017-04-30T14:30:40.370Z,940
2017-04-30T14:31:49.092Z,940
2017-04-30T14:32:58.473Z,992
2017-04-30T14:34:07.558Z,1032
2017-04-30T14:35:16.940Z,1060
2017-04-30T14:36:26.628Z,1052
2017-04-30T14:37:35.663Z,1032
2017-04-30T14:38:45.037Z,932
2017-04-30T14:39:54.117Z,940
2017-04-30T14:41:02.907Z,980
2017-04-30T14:42:11.697Z,988
2017-04-30T14:43:21.039Z,1024
2017-04-30T14:44:29.812Z,1088
2017-04-30T14:45:38.537Z,1136
2017-04-30T14:46:47.612Z,1136
2017-04-30T14:47:56.388Z,1060
2017-04-30T14:49:05.722Z,944
2017-04-30T14:50:15.104Z,924
2017-04-30T14:51:24.199Z,880
2017-04-30T14:52:32.972Z,872
2017-04-30T14:53:42.350Z,868
2017-04-30T14:54:51.674Z,876
2017-04-30T14:56:00.749Z,908
2017-04-30T14:57:09.478Z,936
2017-04-30T14:58:18.239Z,960
2017-04-30T14:59:27.632Z,928
2017-04-30T15:00:36.400Z,940
2017-04-30T15:01:45.459Z,900
2017-04-30T15:02:54.544Z,860
2017-04-30T15:04:03.639Z,824
2017-04-30T15:05:12.424Z,752
2017-04-30T15:06:21.144Z,728
2017-04-30T15:07:29.903Z,728
2017-04-30T15:08:39.293Z,656
2017-04-30T15:09:48.382Z,608
2017-04-30T15:10:57.804Z,632
2017-04-30T15:12:06.827Z,572
2017-04-30T15:13:15.611Z,608
2017-04-30T15:14:24.699Z,604
2017-04-30T15:15:34.104Z,608
2017-04-30T15:16:42.881Z,608
2017-04-30T15:17:51.668Z,604
2017-04-30T15:19:01.513Z,592
2017-04-30T15:20:10.602Z,592
2017-04-30T15:21:19.375Z,596
2017-04-30T15:22:28.469Z,600
2017-04-30T15:23:37.526Z,608
2017-04-30T15:24:46.596Z,592
2017-04-30T15:25:56.234Z,588
2017-04-30T15:27:05.332Z,572
2017-04-30T15:28:14.086Z,556
2017-04-30T15:29:24.396Z,552
2017-04-30T15:30:33.487Z,508
2017-04-30T15:31:42.513Z,532
2017-04-30T15:32:51.591Z,536
2017-04-30T15:34:00.988Z,532
2017-04-30T15:35:09.716Z,528
2017-04-30T15:36:18.988Z,520
2017-04-30T15:37:28.385Z,520
2017-04-30T15:38:37.767Z,536
2017-04-30T15:39:46.862Z,540
2017-04-30T15:40:55.660Z,548
2017-04-30T15:42:05.054Z,552
2017-04-30T15:43:14.149Z,556
2017-04-30T15:44:23.539Z,552
2017-04-30T15:45:32.625Z,552
2017-04-30T15:46:41.709Z,552
2017-04-30T15:47:51.446Z,552